createdAt,value
2018-05-10T00:01:55.121Z,7.40
2018-05-10T00:04:28.524Z,6.90
2018-05-10T00:07:01.857Z,7.82
2018-05-10T00:09:34.423Z,8.60
2018-05-10T00:12:06.969Z,7.12
2018-05-10T00:14:39.514Z,8.10
2018-05-10T00:17:12.048Z,10.05
2018-05-10T00:19:44.614Z,6.80
2018-05-10T00:22:17.146Z,7.03
2018-05-10T00:24:49.685Z,7.28
2018-05-10T00:27:22.208Z,7.60
2018-05-10T00:29:54.786Z,6.50
2018-05-10T00:32:27.324Z,7.55
2018-05-10T00:34:59.879Z,8.52
2018-05-10T00:37:32.422Z,7.40
2018-05-10T00:40:05.066Z,9.88
2018-05-10T00:42:37.659Z,7.53
2018-05-10T00:45:10.241Z,9.45
2018-05-10T00:47:42.811Z,13.75
2018-05-10T00:50:15.399Z,9.88
2018-05-10T00:52:47.977Z,8.15
2018-05-10T00:57:59.461Z,8.13
2018-05-10T01:00:32.058Z,7.25
2018-05-10T01:03:04.626Z,8.15
2018-05-10T01:05:37.327Z,7.12
2018-05-10T01:08:09.873Z,7.93
2018-05-10T01:10:42.442Z,9.18
2018-05-10T01:13:15.005Z,8.38
2018-05-10T01:15:47.700Z,7.68
2018-05-10T01:18:20.251Z,7.55
2018-05-10T01:20:52.906Z,6.85
2018-05-10T01:23:25.516Z,7.97
2018-05-10T01:25:58.056Z,8.65
2018-05-10T01:28:30.613Z,7.03
2018-05-10T01:31:03.153Z,7.97
2018-05-10T01:33:35.795Z,8.55
2018-05-10T01:36:14.883Z,6.93
2018-05-10T01:38:47.449Z,7.18
2018-05-10T01:41:20.004Z,8.13
2018-05-10T01:43:52.654Z,6.55
2018-05-10T01:46:25.672Z,8.50
2018-05-10T01:48:58.605Z,10.32
2018-05-10T01:51:31.615Z,9.30
2018-05-10T01:54:04.291Z,8.73
2018-05-10T01:56:36.855Z,6.93
2018-05-10T01:59:09.447Z,10.30
2018-05-10T02:01:42.023Z,7.10
2018-05-10T02:04:14.607Z,8.85
2018-05-10T02:06:47.146Z,7.97
2018-05-10T02:09:19.767Z,11.63
2018-05-10T02:11:52.363Z,8.20
2018-05-10T02:14:37.372Z,7.85
2018-05-10T02:17:09.824Z,8.23
2018-05-10T02:19:42.347Z,8.10
2018-05-10T02:22:14.851Z,8.20
2018-05-10T02:24:47.360Z,8.10
2018-05-10T02:27:19.849Z,7.72
2018-05-10T02:29:52.385Z,8.80
2018-05-10T02:32:24.901Z,9.82
2018-05-10T02:34:57.419Z,12.05
2018-05-10T02:37:29.925Z,13.68
2018-05-10T02:40:02.443Z,11.75
2018-05-10T02:42:35.824Z,9.15
2018-05-10T02:45:08.483Z,8.43
2018-05-10T02:47:40.858Z,12.00
2018-05-10T02:50:13.383Z,10.23
2018-05-10T02:52:45.892Z,10.25
2018-05-10T02:55:18.408Z,9.20
2018-05-10T02:57:50.901Z,8.45
2018-05-10T03:00:23.413Z,8.13
2018-05-10T03:02:55.921Z,9.68
2018-05-10T03:05:28.442Z,9.77
2018-05-10T03:08:01.012Z,9.40
2018-05-10T03:10:34.079Z,8.63
2018-05-10T03:13:06.592Z,8.52
2018-05-10T03:15:39.108Z,8.43
2018-05-10T03:18:11.600Z,8.65
2018-05-10T03:20:44.140Z,9.13
2018-05-10T03:23:16.637Z,9.00
2018-05-10T03:25:49.152Z,9.40
2018-05-10T03:28:21.646Z,9.10
2018-05-10T03:30:54.169Z,8.05
2018-05-10T03:33:26.688Z,9.77
2018-05-10T03:35:59.197Z,8.25
2018-05-10T03:38:31.688Z,9.00
2018-05-10T03:41:04.287Z,8.65
2018-05-10T03:43:36.723Z,9.38
2018-05-10T03:46:09.243Z,8.57
2018-05-10T03:48:41.741Z,12.88
2018-05-10T03:51:14.254Z,12.68
2018-05-10T03:53:46.752Z,8.90
2018-05-10T03:56:19.272Z,11.15
2018-05-10T03:58:51.765Z,9.00
2018-05-10T04:01:24.278Z,9.25
2018-05-10T04:04:04.823Z,8.30
2018-05-10T04:06:49.341Z,8.77
2018-05-10T04:12:32.053Z,9.70
2018-05-10T04:15:05.368Z,9.07
2018-05-10T04:17:37.868Z,11.25
2018-05-10T04:20:10.387Z,12.80
2018-05-10T04:22:42.899Z,13.07
2018-05-10T04:25:15.423Z,10.45
2018-05-10T04:27:47.963Z,9.60
2018-05-10T04:30:20.452Z,11.57
2018-05-10T04:32:52.949Z,10.82
2018-05-10T04:35:25.524Z,10.80
2018-05-10T04:37:58.029Z,10.82
2018-05-10T04:40:30.563Z,13.18
2018-05-10T04:43:03.147Z,10.68
2018-05-10T04:45:35.701Z,10.65
2018-05-10T04:48:08.186Z,9.77
2018-05-10T04:50:40.701Z,15.75
2018-05-10T04:53:13.204Z,10.48
2018-05-10T04:58:24.498Z,12.48
2018-05-10T05:00:57.050Z,12.93
2018-05-10T05:03:29.628Z,10.95
2018-05-10T05:06:02.092Z,11.23
2018-05-10T05:08:35.326Z,9.10
2018-05-10T05:11:07.819Z,10.38
2018-05-10T05:13:40.307Z,10.50
2018-05-10T05:16:12.849Z,10.23
2018-05-10T05:18:45.362Z,10.30
2018-05-10T05:21:17.876Z,12.55
2018-05-10T05:23:50.380Z,11.27
2018-05-10T05:26:22.919Z,11.32
2018-05-10T05:28:55.457Z,12.27
2018-05-10T05:31:27.976Z,10.75
2018-05-10T05:34:00.475Z,10.05
2018-05-10T05:36:33.244Z,11.32
2018-05-10T05:39:05.756Z,11.40
2018-05-10T05:41:38.276Z,13.88
2018-05-10T05:44:10.787Z,9.38
2018-05-10T05:46:43.319Z,10.43
2018-05-10T05:49:15.820Z,11.35
2018-05-10T05:51:48.332Z,14.68
2018-05-10T05:54:20.836Z,11.00
2018-05-10T05:56:53.357Z,13.23
2018-05-10T05:59:25.857Z,9.65
2018-05-10T06:01:58.370Z,13.70
2018-05-10T06:04:30.868Z,9.27
2018-05-10T06:07:04.250Z,10.27
2018-05-10T06:09:36.758Z,10.10
2018-05-10T06:12:09.278Z,13.05
2018-05-10T06:14:41.792Z,10.18
2018-05-10T06:17:14.308Z,9.43
2018-05-10T06:19:46.815Z,9.88
2018-05-10T06:22:19.343Z,9.82
2018-05-10T06:24:51.896Z,11.12
2018-05-10T06:27:24.387Z,12.48
2018-05-10T06:29:56.883Z,10.32
2018-05-10T06:32:29.403Z,10.45
2018-05-10T06:35:01.939Z,13.80
2018-05-10T06:37:35.128Z,11.85
2018-05-10T06:40:07.629Z,13.43
2018-05-10T06:42:40.149Z,11.95
2018-05-10T06:45:12.651Z,11.02
2018-05-10T06:47:45.159Z,11.70
2018-05-10T06:50:17.651Z,10.13
2018-05-10T06:52:50.171Z,13.32
2018-05-10T06:55:22.705Z,13.07
2018-05-10T06:57:55.215Z,16.15
2018-05-10T07:00:27.711Z,11.90
2018-05-10T07:03:00.231Z,17.20
2018-05-10T07:05:33.003Z,12.48
2018-05-10T07:08:05.514Z,13.48
2018-05-10T07:10:38.005Z,11.07
2018-05-10T07:13:10.525Z,10.05
2018-05-10T07:15:43.020Z,10.73
2018-05-10T07:18:15.545Z,16.20
2018-05-10T07:20:48.031Z,17.40
2018-05-10T07:23:20.550Z,14.30
2018-05-10T07:25:53.075Z,11.90
2018-05-10T07:28:25.570Z,10.75
2018-05-10T07:30:58.096Z,10.10
2018-05-10T07:33:30.593Z,10.45
2018-05-10T07:36:03.210Z,11.88
2018-05-10T07:38:35.707Z,13.27
2018-05-10T07:41:08.224Z,11.02
2018-05-10T07:43:40.718Z,11.50
2018-05-10T07:46:13.242Z,15.85
2018-05-10T07:48:45.739Z,11.10
2018-05-10T07:51:18.246Z,10.80
2018-05-10T07:53:50.751Z,9.20
2018-05-10T07:56:23.263Z,8.93
2018-05-10T07:58:55.759Z,9.68
2018-05-10T08:01:28.274Z,9.80
2018-05-10T08:04:00.769Z,11.38
2018-05-10T08:06:33.947Z,8.88
2018-05-10T08:09:06.527Z,14.05
2018-05-10T08:11:39.036Z,9.88
2018-05-10T08:14:11.531Z,9.02
2018-05-10T08:16:44.045Z,10.77
2018-05-10T08:19:16.546Z,13.95
2018-05-10T08:21:49.059Z,8.55
2018-05-10T08:24:21.625Z,9.27
2018-05-10T08:26:54.095Z,15.77
2018-05-10T08:29:31.602Z,10.45
2018-05-10T08:32:04.114Z,11.50
2018-05-10T08:34:36.611Z,9.00
2018-05-10T08:37:09.123Z,12.23
2018-05-10T08:39:41.627Z,10.75
2018-05-10T08:42:14.144Z,10.45
2018-05-10T08:44:46.653Z,12.23
2018-05-10T08:47:19.166Z,12.18
2018-05-10T08:49:51.664Z,10.27
2018-05-10T08:52:24.182Z,10.73
2018-05-10T08:54:56.684Z,11.75
2018-05-10T08:57:29.203Z,13.30
2018-05-10T09:00:01.727Z,16.02
2018-05-10T09:02:34.240Z,11.80
2018-05-10T09:05:06.745Z,11.55
2018-05-10T09:07:39.256Z,9.25
2018-05-10T09:10:11.754Z,17.45
2018-05-10T09:12:44.268Z,13.82
2018-05-10T09:15:16.773Z,16.08
2018-05-10T09:17:49.287Z,9.80
2018-05-10T09:20:21.825Z,9.38
2018-05-10T09:22:54.315Z,9.55
2018-05-10T09:25:26.890Z,7.03
2018-05-10T09:27:59.350Z,11.60
2018-05-10T09:30:31.848Z,8.82
2018-05-10T09:33:05.497Z,8.00
2018-05-10T09:35:38.000Z,11.57
2018-05-10T09:38:10.528Z,9.43
2018-05-10T09:40:43.020Z,7.18
2018-05-10T09:43:15.536Z,9.20
2018-05-10T09:45:48.051Z,12.48
2018-05-10T09:48:20.562Z,8.45
2018-05-10T09:50:53.052Z,10.32
2018-05-10T09:53:25.592Z,8.52
2018-05-10T09:55:58.262Z,16.27
2018-05-10T09:58:30.780Z,11.20
2018-05-10T10:01:03.948Z,7.30
2018-05-10T10:03:36.472Z,10.85
2018-05-10T10:06:08.984Z,11.82
2018-05-10T10:08:41.923Z,6.97
2018-05-10T10:11:14.472Z,10.35
2018-05-10T10:13:46.992Z,7.50
2018-05-10T10:16:19.511Z,9.88
2018-05-10T10:18:52.028Z,6.12
2018-05-10T10:21:24.526Z,14.05
2018-05-10T10:23:57.043Z,7.80
2018-05-10T10:26:29.550Z,16.40
2018-05-10T10:29:02.073Z,5.53
2018-05-10T10:31:35.334Z,16.40
2018-05-10T10:34:07.865Z,8.75
2018-05-10T10:36:40.360Z,7.60
2018-05-10T10:39:12.872Z,7.97
2018-05-10T10:41:45.374Z,6.35
2018-05-10T10:44:17.891Z,8.57
2018-05-10T10:46:50.392Z,9.15
2018-05-10T10:49:22.894Z,8.98
2018-05-10T10:51:55.403Z,8.65
2018-05-10T10:54:27.915Z,9.90
2018-05-10T10:57:00.469Z,15.68
2018-05-10T10:59:33.111Z,9.88
2018-05-10T11:02:05.967Z,8.57
2018-05-10T11:04:38.463Z,6.35
2018-05-10T11:07:10.986Z,7.28
2018-05-10T11:09:43.483Z,7.53
2018-05-10T11:12:15.999Z,17.90
2018-05-10T11:14:48.503Z,8.20
2018-05-10T11:17:21.015Z,11.88
2018-05-10T11:19:53.512Z,13.27
2018-05-10T11:22:26.025Z,8.43
2018-05-10T11:24:58.528Z,8.43
2018-05-10T11:27:31.044Z,15.73
2018-05-10T11:30:03.865Z,7.87
2018-05-10T11:32:36.859Z,10.20
2018-05-10T11:35:09.382Z,10.07
2018-05-10T11:37:41.902Z,7.68
2018-05-10T11:40:14.399Z,8.40
2018-05-10T11:42:46.924Z,7.15
2018-05-10T11:45:19.415Z,6.62
2018-05-10T11:47:51.936Z,7.45
2018-05-10T11:50:24.455Z,10.88
2018-05-10T11:52:56.976Z,9.23
2018-05-10T11:55:29.463Z,7.90
2018-05-10T11:58:01.988Z,10.30
2018-05-10T12:00:35.113Z,10.45
2018-05-10T12:03:07.632Z,8.02
2018-05-10T12:05:40.126Z,9.90
2018-05-10T12:08:12.636Z,7.50
2018-05-10T12:10:45.139Z,11.73
2018-05-10T12:13:17.653Z,6.25
2018-05-10T12:15:50.152Z,8.90
2018-05-10T12:18:22.687Z,8.93
2018-05-10T12:20:55.188Z,8.40
2018-05-10T12:23:27.703Z,6.60
2018-05-10T12:26:00.205Z,6.35
2018-05-10T12:28:33.287Z,8.80
2018-05-10T12:31:05.846Z,6.00
2018-05-10T12:33:38.310Z,9.95
2018-05-10T12:36:10.816Z,8.07
2018-05-10T12:38:43.343Z,13.35
2018-05-10T12:41:16.065Z,8.43
2018-05-10T12:43:48.588Z,11.73
2018-05-10T12:46:21.087Z,7.85
2018-05-10T12:48:53.608Z,10.07
2018-05-10T12:51:26.104Z,9.90
2018-05-10T12:53:58.627Z,7.70
2018-05-10T12:56:31.305Z,9.13
2018-05-10T12:59:04.115Z,9.98
2018-05-10T13:01:36.627Z,12.20
2018-05-10T13:04:09.185Z,11.75
2018-05-10T13:06:41.705Z,19.00
2018-05-10T13:09:14.249Z,12.37
2018-05-10T13:11:46.752Z,10.90
2018-05-10T13:14:19.287Z,24.45
2018-05-10T13:16:51.811Z,16.58
2018-05-10T13:19:24.416Z,16.37
2018-05-10T13:21:56.877Z,15.15
2018-05-10T13:24:29.415Z,21.65
2018-05-10T13:27:01.927Z,21.80
2018-05-10T13:29:35.228Z,21.70
2018-05-10T13:32:07.734Z,23.08
2018-05-10T13:34:40.258Z,24.80
2018-05-10T13:37:12.751Z,23.20
2018-05-10T13:39:45.270Z,24.20
2018-05-10T13:42:17.777Z,22.17
2018-05-10T13:44:50.296Z,21.20
2018-05-10T13:47:22.859Z,18.48
2018-05-10T13:49:55.376Z,20.80
2018-05-10T13:52:27.886Z,19.10
2018-05-10T13:55:00.418Z,23.10
2018-05-10T13:57:33.556Z,21.45
2018-05-10T14:00:06.089Z,26.10
2018-05-10T14:02:38.605Z,34.45
2018-05-10T14:05:11.143Z,29.23
2018-05-10T14:07:43.644Z,33.70
2018-05-10T14:10:16.159Z,28.87
2018-05-10T14:12:48.665Z,28.70
2018-05-10T14:15:21.187Z,27.35
2018-05-10T14:17:53.688Z,27.37
2018-05-10T14:20:26.220Z,26.40
2018-05-10T14:22:58.716Z,25.58
2018-05-10T14:25:31.246Z,30.37
2018-05-10T14:28:04.121Z,22.92
2018-05-10T14:30:36.649Z,23.80
2018-05-10T14:33:09.188Z,25.27
2018-05-10T14:35:41.734Z,28.00
2018-05-10T14:38:14.286Z,18.08
2018-05-10T14:40:46.807Z,28.20
2018-05-10T14:43:19.377Z,27.02
2018-05-10T14:45:51.884Z,25.15
2018-05-10T14:48:24.417Z,25.05
2018-05-10T14:50:56.937Z,22.67
2018-05-10T14:53:35.597Z,25.75
2018-05-10T14:56:09.192Z,21.15
2018-05-10T14:58:41.721Z,17.55
2018-05-10T15:01:14.227Z,24.70
2018-05-10T15:03:46.762Z,15.50
2018-05-10T15:06:20.556Z,20.62
2018-05-10T15:08:53.130Z,17.02
2018-05-10T15:11:25.635Z,18.30
2018-05-10T15:13:58.166Z,13.40
2018-05-10T15:16:30.684Z,13.35
2018-05-10T15:19:03.444Z,15.25
2018-05-10T15:21:35.947Z,15.73
2018-05-10T15:24:08.492Z,12.52
2018-05-10T15:26:40.995Z,16.30
2018-05-10T15:29:13.528Z,12.63
2018-05-10T15:31:46.042Z,11.73
2018-05-10T15:34:18.581Z,15.02
2018-05-10T15:36:51.087Z,15.23
2018-05-10T15:39:23.679Z,20.90
2018-05-10T15:41:56.186Z,10.77
2018-05-10T15:44:28.717Z,17.45
2018-05-10T15:47:01.227Z,13.48
2018-05-10T15:49:34.913Z,8.68
2018-05-10T15:52:07.417Z,11.98
2018-05-10T15:54:39.953Z,11.80
2018-05-10T15:57:12.461Z,12.52
2018-05-10T15:59:45.003Z,10.48
2018-05-10T16:02:17.546Z,13.07
2018-05-10T16:04:50.135Z,11.23
2018-05-10T16:07:22.631Z,8.70
2018-05-10T16:09:55.166Z,10.90
2018-05-10T16:12:27.667Z,8.50
2018-05-10T16:15:00.192Z,7.87
2018-05-10T16:17:32.685Z,7.18
2018-05-10T16:20:05.669Z,7.57
2018-05-10T16:22:38.201Z,7.12
2018-05-10T16:25:10.888Z,8.20
2018-05-10T16:27:44.600Z,5.35
2018-05-10T16:30:17.177Z,5.43
2018-05-10T16:32:49.757Z,5.32
2018-05-10T16:35:22.283Z,5.47
2018-05-10T16:37:54.793Z,5.97
2018-05-10T16:40:27.318Z,4.72
2018-05-10T16:42:59.825Z,5.70
2018-05-10T16:45:32.363Z,4.90
2018-05-10T16:48:05.623Z,8.50
2018-05-10T16:50:38.156Z,4.30
2018-05-10T16:53:10.656Z,4.07
2018-05-10T16:55:43.179Z,7.68
2018-05-10T16:58:15.680Z,6.60
2018-05-10T17:00:48.208Z,3.00
2018-05-10T17:03:20.744Z,3.30
2018-05-10T17:05:53.275Z,5.07
2018-05-10T17:08:25.811Z,5.30
2018-05-10T17:10:58.339Z,4.07
2018-05-10T17:13:30.843Z,4.75
2018-05-10T17:16:03.885Z,2.80
2018-05-10T17:18:36.473Z,6.70
2018-05-10T17:21:08.944Z,5.70
2018-05-10T17:23:41.472Z,3.50
2018-05-10T17:26:13.991Z,3.22
2018-05-10T17:28:46.485Z,4.87
2018-05-10T17:31:19.194Z,3.10
2018-05-10T17:33:51.724Z,6.18
2018-05-10T17:36:24.316Z,5.03
2018-05-10T17:38:56.871Z,2.80
2018-05-10T17:41:29.369Z,3.97
2018-05-10T17:44:01.870Z,7.18
2018-05-10T17:46:35.203Z,2.85
2018-05-10T17:49:07.694Z,3.87
2018-05-10T17:51:40.213Z,5.28
2018-05-10T17:54:12.730Z,3.70
2018-05-10T17:56:45.245Z,3.22
2018-05-10T17:59:17.826Z,3.33
2018-05-10T18:01:50.340Z,3.12
2018-05-10T18:04:22.869Z,2.35
2018-05-10T18:06:55.502Z,3.60
2018-05-10T18:09:28.048Z,4.45
2018-05-10T18:12:00.549Z,2.70
2018-05-10T18:14:33.067Z,3.53
2018-05-10T18:17:05.584Z,3.25
2018-05-10T18:19:38.115Z,2.30
2018-05-10T18:22:10.637Z,4.28
2018-05-10T18:24:43.163Z,3.20
2018-05-10T18:27:15.668Z,4.47
2018-05-10T18:29:48.188Z,4.87
2018-05-10T18:32:20.680Z,8.68
2018-05-10T18:34:53.195Z,3.20
2018-05-10T18:37:25.695Z,4.43
2018-05-10T18:39:58.225Z,4.05
2018-05-10T18:42:30.822Z,5.05
2018-05-10T18:45:04.128Z,3.15
2018-05-10T18:47:36.628Z,3.50
2018-05-10T18:50:09.156Z,3.58
2018-05-10T18:52:41.664Z,2.40
2018-05-10T18:55:14.191Z,5.15
2018-05-10T18:57:46.700Z,5.90
2018-05-10T19:00:19.214Z,17.12
2018-05-10T19:02:51.718Z,3.25
2018-05-10T19:05:24.228Z,2.78
2018-05-10T19:07:56.735Z,2.62
2018-05-10T19:10:29.282Z,3.35
2018-05-10T19:13:01.776Z,3.67
2018-05-10T19:15:35.420Z,2.65
2018-05-10T19:18:07.936Z,4.07
2018-05-10T19:20:40.460Z,3.90
2018-05-10T19:23:12.975Z,6.40
2018-05-10T19:25:45.493Z,4.97
2018-05-10T19:28:17.996Z,4.35
2018-05-10T19:30:50.515Z,4.30
2018-05-10T19:33:23.012Z,5.47
2018-05-10T19:35:55.559Z,3.12
2018-05-10T19:38:28.060Z,5.03
2018-05-10T19:41:00.930Z,2.85
2018-05-10T19:43:34.016Z,4.70
2018-05-10T19:46:06.671Z,7.80
2018-05-10T19:48:39.221Z,4.95
2018-05-10T19:51:11.772Z,2.83
2018-05-10T19:53:44.267Z,5.00
2018-05-10T19:56:16.788Z,6.30
2018-05-10T19:58:49.281Z,4.70
2018-05-10T20:01:21.791Z,2.58
2018-05-10T20:03:54.295Z,3.58
2018-05-10T20:06:26.821Z,3.35
2018-05-10T20:08:59.325Z,3.75
2018-05-10T20:11:31.848Z,4.50
2018-05-10T20:14:04.994Z,4.72
2018-05-10T20:16:37.531Z,3.65
2018-05-10T20:19:10.027Z,3.85
2018-05-10T20:21:42.602Z,5.82
2018-05-10T20:24:15.101Z,6.60
2018-05-10T20:26:47.662Z,4.07
2018-05-10T20:29:20.161Z,4.47
2018-05-10T20:31:52.831Z,4.43
2018-05-10T20:34:25.327Z,5.82
2018-05-10T20:36:57.852Z,6.90
2018-05-10T20:39:30.355Z,6.12
2018-05-10T20:42:03.100Z,3.33
2018-05-10T20:44:35.686Z,8.55
2018-05-10T20:47:08.149Z,6.12
2018-05-10T20:49:40.652Z,6.12
2018-05-10T20:52:13.172Z,6.47
2018-05-10T20:54:45.828Z,4.55
2018-05-10T20:57:18.494Z,4.57
2018-05-10T20:59:51.029Z,6.87
2018-05-10T21:02:23.619Z,4.75
2018-05-10T21:04:56.180Z,14.32
2018-05-10T21:07:28.758Z,6.80
2018-05-10T21:10:01.387Z,7.15
2018-05-10T21:12:42.058Z,6.43
2018-05-10T21:15:14.571Z,5.45
2018-05-10T21:17:47.502Z,7.45
2018-05-10T21:20:20.091Z,6.55
2018-05-10T21:22:52.603Z,6.37
2018-05-10T21:25:25.109Z,5.70
2018-05-10T21:27:57.677Z,7.60
2018-05-10T21:30:30.208Z,7.70
2018-05-10T21:33:02.714Z,8.82
2018-05-10T21:35:35.697Z,6.80
2018-05-10T21:38:08.402Z,5.03
2018-05-10T21:40:40.932Z,7.68
2018-05-10T21:43:13.464Z,6.95
2018-05-10T21:45:46.091Z,7.45
2018-05-10T21:48:18.620Z,6.55
2018-05-10T21:50:51.140Z,6.07
2018-05-10T21:53:23.661Z,6.65
2018-05-10T21:55:56.181Z,8.38
2018-05-10T21:58:28.711Z,6.57
2018-05-10T22:01:01.446Z,5.45
2018-05-10T22:03:34.018Z,7.07
2018-05-10T22:06:06.874Z,6.32
2018-05-10T22:08:39.392Z,5.87
2018-05-10T22:11:11.909Z,7.55
2018-05-10T22:13:44.427Z,7.12
2018-05-10T22:16:19.324Z,6.12
2018-05-10T22:18:51.824Z,5.40
2018-05-10T22:21:24.352Z,6.50
2018-05-10T22:23:56.902Z,4.82
2018-05-10T22:26:29.476Z,5.97
2018-05-10T22:29:01.996Z,6.87
2018-05-10T22:31:35.152Z,6.62
2018-05-10T22:34:07.656Z,6.43
2018-05-10T22:36:40.242Z,5.65
2018-05-10T22:39:12.793Z,8.30
2018-05-10T22:41:45.320Z,5.07
2018-05-10T22:44:17.897Z,6.28
2018-05-10T22:46:50.469Z,7.32
2018-05-10T22:49:23.008Z,6.78
2018-05-10T22:51:55.549Z,5.25
2018-05-10T22:54:28.081Z,8.13
2018-05-10T22:57:00.639Z,8.20
2018-05-10T22:59:33.181Z,6.37
2018-05-10T23:02:05.712Z,6.18
2018-05-10T23:04:38.217Z,5.37
2018-05-10T23:07:10.741Z,5.68
2018-05-10T23:09:43.272Z,6.40
2018-05-10T23:12:15.879Z,6.93
2018-05-10T23:14:48.333Z,6.53
2018-05-10T23:17:20.864Z,5.65
2018-05-10T23:19:53.374Z,7.70
2018-05-10T23:22:25.892Z,5.35
2018-05-10T23:24:58.412Z,5.95
2018-05-10T23:27:30.947Z,7.12
2018-05-10T23:30:04.155Z,8.85
2018-05-10T23:32:36.669Z,5.12
2018-05-10T23:35:09.173Z,6.95
2018-05-10T23:37:41.715Z,5.40
2018-05-10T23:40:14.213Z,5.30
2018-05-10T23:42:46.739Z,6.50
2018-05-10T23:45:19.246Z,6.97
2018-05-10T23:47:51.771Z,7.57
2018-05-10T23:50:24.274Z,5.80
2018-05-10T23:52:56.793Z,5.00
2018-05-10T23:55:29.299Z,7.50
2018-05-10T23:58:01.828Z,6.22
